Time;durP1;ratioP1;P1;durP2;ratioP2;P2;SDS_P1;SDS_P2;PMS_P1;PMS_P2;Temp;Humidity;BMP_temperature;BMP_pressure;BME280_temperature;BME280_humidity;BME280_pressure;Samples;Min_cycle;Max_cycle;Signal;HPM_P1;HPM_P2
2023/12/15 00:00:01;;;;;;;;;7.33;7.33;;;;;14.21;100.00;102359.19;2086972;28;44773;-56
2023/12/15 00:01:01;;;;;;;;;9.25;8.25;;;;;14.21;100.00;102352.97;2088199;28;44924;-55
2023/12/15 00:02:01;;;;;;;;;12.00;12.00;;;;;14.20;100.00;102359.22;2088222;28;44967;-56
2023/12/15 00:03:02;;;;;;;;;11.00;11.00;;;;;14.20;100.00;102360.09;2087992;28;44854;-56
2023/12/15 00:04:03;;;;;;;;;10.33;10.00;;;;;14.20;100.00;102360.09;2088500;28;44913;-55
2023/12/15 00:05:03;;;;;;;;;10.67;10.00;;;;;14.20;100.00;102354.75;2088387;28;44888;-56
2023/12/15 00:06:04;;;;;;;;;10.33;10.33;;;;;14.20;100.00;102359.22;2088338;28;44834;-55
2023/12/15 00:07:04;;;;;;;;;6.33;6.33;;;;;14.19;100.00;102360.09;2088174;28;45264;-58
2023/12/15 00:08:04;;;;;;;;;10.33;10.33;;;;;14.17;100.00;102362.78;2088399;28;44848;-57
2023/12/15 00:09:05;;;;;;;;;8.00;8.00;;;;;14.19;100.00;102368.13;2088413;28;45020;-55
2023/12/15 00:10:06;;;;;;;;;6.33;6.33;;;;;14.19;100.00;102370.78;2088522;28;44880;-56
2023/12/15 00:11:07;;;;;;;;;9.00;9.00;;;;;14.18;100.00;102366.34;2088164;28;44970;-57
2023/12/15 00:12:07;;;;;;;;;11.33;11.33;;;;;14.18;100.00;102367.25;2088437;28;44934;-55
2023/12/15 00:13:08;;;;;;;;;8.00;8.00;;;;;14.18;100.00;102366.34;2087805;28;44866;-55
2023/12/15 00:14:08;;;;;;;;;8.67;8.00;;;;;14.17;100.00;102370.81;2088607;28;44920;-56
2023/12/15 00:15:09;;;;;;;;;10.33;8.33;;;;;14.16;100.00;102361.03;2093499;28;45028;-56
2023/12/15 00:16:09;;;;;;;;;8.00;8.00;;;;;14.16;100.00;102371.72;2086124;28;44966;-56
2023/12/15 00:17:09;;;;;;;;;7.67;7.67;;;;;14.17;100.00;102377.94;2087472;28;44908;-55
2023/12/15 00:18:10;;;;;;;;;9.67;9.67;;;;;14.14;100.00;102376.19;2087250;28;44996;-58
2023/12/15 00:19:11;;;;;;;;;7.67;7.67;;;;;14.15;100.00;102380.63;2087567;28;45687;-56
2023/12/15 00:20:11;;;;;;;;;9.00;9.00;;;;;14.14;100.00;102377.06;2079959;28;44813;-54
2023/12/15 00:21:12;;;;;;;;;8.00;7.00;;;;;14.13;100.00;102377.09;2087168;28;45483;-54
2023/12/15 00:22:12;;;;;;;;;7.00;7.00;;;;;14.11;100.00;102378.91;2087760;28;44997;-56
2023/12/15 00:23:13;;;;;;;;;7.67;7.67;;;;;14.11;100.00;102381.56;2087624;28;44964;-54
2023/12/15 00:24:14;;;;;;;;;8.00;8.00;;;;;14.09;100.00;102368.19;2087266;28;44868;-53
2023/12/15 00:25:14;;;;;;;;;9.00;9.00;;;;;14.11;100.00;102374.44;2086750;28;44919;-58
2023/12/15 00:26:15;;;;;;;;;8.00;8.00;;;;;14.10;100.00;102374.44;2087001;28;44919;-56
2023/12/15 00:27:15;;;;;;;;;9.67;8.00;;;;;14.10;100.00;102372.66;2087223;28;44775;-57
2023/12/15 00:28:15;;;;;;;;;8.00;8.00;;;;;14.10;100.00;102374.44;2070316;28;44906;-55
2023/12/15 00:29:16;;;;;;;;;7.67;7.67;;;;;14.10;100.00;102374.44;2070957;28;45037;-55
2023/12/15 00:30:16;;;;;;;;;8.67;8.67;;;;;14.10;100.00;102372.66;2087537;28;45122;-55
2023/12/15 00:31:17;;;;;;;;;7.00;6.00;;;;;14.10;100.00;102371.75;2087055;28;44918;-56
2023/12/15 00:32:17;;;;;;;;;8.33;8.33;;;;;14.09;100.00;102375.31;2086864;28;44989;-54
2023/12/15 00:33:18;;;;;;;;;8.00;8.00;;;;;14.09;100.00;102373.53;2081524;28;44976;-57
2023/12/15 00:34:18;;;;;;;;;8.67;7.00;;;;;14.07;100.00;102377.13;2087171;28;44946;-55
2023/12/15 00:35:19;;;;;;;;;6.67;6.67;;;;;14.07;100.00;102383.34;2084486;28;45423;-57
2023/12/15 00:36:19;;;;;;;;;8.00;8.00;;;;;14.08;100.00;102379.78;2086732;28;44914;-54
2023/12/15 00:37:20;;;;;;;;;7.00;7.00;;;;;14.07;100.00;102383.34;2087050;28;44906;-57
2023/12/15 00:38:20;;;;;;;;;8.75;8.00;;;;;14.08;100.00;102381.56;2086943;28;44939;-55
2023/12/15 00:39:21;;;;;;;;;9.67;7.00;;;;;14.06;100.00;102381.59;2087061;28;44855;-55
2023/12/15 00:40:22;;;;;;;;;8.67;8.00;;;;;14.06;100.00;102381.59;2086993;28;45312;-57
2023/12/15 00:41:23;;;;;;;;;11.60;10.80;;;;;14.07;100.00;102388.69;2087205;28;45181;-55
2023/12/15 00:42:23;;;;;;;;;14.75;13.00;;;;;14.07;100.00;102387.81;2087318;28;44954;-56
2023/12/15 00:43:24;;;;;;;;;12.75;11.50;;;;;14.09;100.00;102386.00;2087854;28;44931;-57
2023/12/15 00:44:24;;;;;;;;;10.33;10.33;;;;;14.10;100.00;102388.69;2087349;28;44899;-57
2023/12/15 00:45:24;;;;;;;;;10.00;9.33;;;;;14.10;100.00;102386.03;2073112;28;44939;-53
2023/12/15 00:46:25;;;;;;;;;10.25;9.00;;;;;14.10;100.00;102391.34;2079141;28;45031;-54
2023/12/15 00:47:25;;;;;;;;;10.67;9.67;;;;;14.07;100.00;102383.34;2086430;28;44890;-54
2023/12/15 00:48:26;;;;;;;;;14.25;12.50;;;;;14.09;100.00;102388.69;2086692;28;44895;-53
2023/12/15 00:49:27;;;;;;;;;10.60;10.60;;;;;14.10;100.00;102390.44;2085476;28;44879;-56
2023/12/15 00:50:28;;;;;;;;;15.25;14.75;;;;;14.09;100.00;102386.88;2087883;28;44867;-56
2023/12/15 00:51:29;;;;;;;;;14.00;14.00;;;;;14.10;100.00;102374.44;2086324;28;45037;-56
2023/12/15 00:52:29;;;;;;;;;21.25;20.00;;;;;14.11;100.00;102385.13;2086171;28;45097;-55
2023/12/15 00:53:32;;;;;;;;;44.25;38.75;;;;;14.12;100.00;102386.88;2082002;28;44799;-54
2023/12/15 00:54:33;;;;;;;;;22.40;22.20;;;;;14.14;100.00;102385.06;2087775;28;44803;-55
2023/12/15 00:55:33;;;;;;;;;24.25;23.00;;;;;14.17;100.00;102391.28;2087967;28;44801;-54
2023/12/15 00:56:34;;;;;;;;;37.00;33.25;;;;;14.20;100.00;102394.81;2087507;28;44879;-54
2023/12/15 00:57:34;;;;;;;;;45.50;38.75;;;;;14.20;100.00;102388.56;2087969;28;45185;-57
2023/12/15 00:58:35;;;;;;;;;34.75;33.00;;;;;14.20;100.00;102396.59;2087908;28;44892;-55
2023/12/15 00:59:35;;;;;;;;;32.25;30.00;;;;;14.18;100.00;102388.59;2087987;28;44865;-56
2023/12/15 01:00:35;;;;;;;;;75.75;66.75;;;;;14.19;100.00;102389.47;2087513;28;44952;-52
2023/12/15 01:01:36;;;;;;;;;59.75;48.00;;;;;14.18;100.00;102385.03;2087634;28;44818;-55
2023/12/15 01:02:36;;;;;;;;;58.50;47.75;;;;;14.17;100.00;102386.81;2087604;28;44916;-55
2023/12/15 01:03:37;;;;;;;;;73.25;61.50;;;;;14.20;100.00;102391.25;2086772;28;44858;-55
2023/12/15 01:04:37;;;;;;;;;60.25;48.25;;;;;14.20;100.00;102386.78;2087835;28;44999;-57
2023/12/15 01:05:37;;;;;;;;;60.50;49.25;;;;;14.20;100.00;102391.25;2081962;28;44913;-57
2023/12/15 01:06:38;;;;;;;;;52.25;43.25;;;;;14.23;100.00;102380.53;2078657;28;44927;-57
2023/12/15 01:07:38;;;;;;;;;47.75;40.75;;;;;14.22;100.00;102384.09;2087706;28;45496;-57
2023/12/15 01:08:38;;;;;;;;;37.50;34.25;;;;;14.20;100.00;102378.78;2088047;28;45012;-58
2023/12/15 01:09:39;;;;;;;;;47.50;39.75;;;;;14.22;100.00;102374.31;2087677;28;44935;-57
2023/12/15 01:10:39;;;;;;;;;70.25;56.50;;;;;14.22;100.00;102376.09;2087917;28;44786;-56
2023/12/15 01:11:39;;;;;;;;;80.25;73.75;;;;;14.22;100.00;102368.97;2088051;28;44881;-55
2023/12/15 01:12:40;;;;;;;;;107.67;99.67;;;;;14.23;100.00;102368.09;2087809;28;45027;-56
2023/12/15 01:13:40;;;;;;;;;77.25;67.00;;;;;14.23;100.00;102365.41;2087136;28;44791;-56
2023/12/15 01:14:40;;;;;;;;;67.75;53.50;;;;;14.25;100.00;102362.72;2087526;28;44823;-56
2023/12/15 01:15:41;;;;;;;;;61.00;50.25;;;;;14.28;100.00;102366.25;2087944;28;44901;-57
2023/12/15 01:16:48;;;;;;;;;71.00;57.25;;;;;14.25;100.00;102371.63;2087555;28;44791;-58
2023/12/15 01:17:49;;;;;;;;;71.20;56.00;;;;;14.24;100.00;102374.31;2081015;28;44855;-56
2023/12/15 01:18:49;;;;;;;;;64.75;51.25;;;;;14.22;100.00;102371.63;2087920;28;44909;-55
2023/12/15 01:19:49;;;;;;;;;45.25;39.00;;;;;14.23;100.00;102378.78;2087771;28;44885;-56
2023/12/15 01:20:50;;;;;;;;;59.50;47.75;;;;;14.23;100.00;102375.19;2083156;28;45087;-59
2023/12/15 01:21:50;;;;;;;;;67.00;51.75;;;;;14.23;100.00;102381.44;2087939;28;45013;-56
2023/12/15 01:22:50;;;;;;;;;52.75;41.25;;;;;14.23;100.00;102380.53;2087825;28;44834;-56
2023/12/15 01:23:51;;;;;;;;;56.25;46.00;;;;;14.22;100.00;102379.66;2087766;28;44882;-57
2023/12/15 01:24:51;;;;;;;;;52.50;43.25;;;;;14.22;100.00;102382.31;2087908;28;45028;-58
2023/12/15 01:25:51;;;;;;;;;71.50;58.25;;;;;14.24;100.00;102385.00;2087870;28;44890;-56
2023/12/15 01:26:52;;;;;;;;;71.50;57.00;;;;;14.24;100.00;102377.88;2087864;28;44766;-56
2023/12/15 01:27:53;;;;;;;;;48.00;38.60;;;;;14.25;100.00;102379.63;2088363;28;44881;-58
2023/12/15 01:28:53;;;;;;;;;39.00;31.00;;;;;14.26;100.00;102380.53;2087788;28;45008;-56
2023/12/15 01:29:53;;;;;;;;;30.50;29.25;;;;;14.25;100.00;102378.75;2086279;28;44939;-59
2023/12/15 01:30:54;;;;;;;;;38.00;34.50;;;;;14.25;100.00;102379.63;2086653;28;44870;-58
2023/12/15 01:31:54;;;;;;;;;44.00;37.25;;;;;14.26;100.00;102376.06;2088094;28;44882;-56
2023/12/15 01:32:54;;;;;;;;;31.75;30.00;;;;;14.25;100.00;102382.31;2087578;28;45257;-55
2023/12/15 01:33:55;;;;;;;;;37.50;33.75;;;;;14.27;100.00;102379.63;2086761;28;44899;-55
2023/12/15 01:34:55;;;;;;;;;37.25;32.50;;;;;14.26;100.00;102384.06;2087779;28;44916;-57
2023/12/15 01:35:56;;;;;;;;;40.00;33.50;;;;;14.27;100.00;102384.97;2087685;28;44922;-56
2023/12/15 01:36:56;;;;;;;;;32.75;30.25;;;;;14.28;100.00;102378.72;2088126;28;45257;-56
2023/12/15 01:37:56;;;;;;;;;32.00;30.00;;;;;14.26;100.00;102381.41;2085880;28;44890;-57
2023/12/15 01:38:57;;;;;;;;;21.50;20.50;;;;;14.26;100.00;102375.19;2083182;28;45036;-58
2023/12/15 01:39:57;;;;;;;;;58.75;47.75;;;;;14.26;100.00;102369.84;2089347;28;44972;-57
2023/12/15 01:40:57;;;;;;;;;91.75;85.25;;;;;14.24;100.00;102377.88;2089118;28;44994;-56
2023/12/15 01:41:58;;;;;;;;;244.75;223.00;;;;;14.25;100.00;102378.75;2088921;28;44937;-57
2023/12/15 01:43:02;;;;;;;;;329.50;297.25;;;;;14.27;100.00;102376.94;2089367;28;45460;-56
2023/12/15 01:44:02;;;;;;;;;281.50;252.00;;;;;14.26;100.00;102376.06;2089409;28;44866;-57
2023/12/15 01:45:03;;;;;;;;;152.33;140.33;;;;;14.27;100.00;102379.63;2088118;28;45659;-57
2023/12/15 01:46:04;;;;;;;;;115.33;107.00;;;;;14.27;100.00;102383.16;2088677;28;45242;-59
2023/12/15 01:47:04;;;;;;;;;73.25;62.00;;;;;14.30;100.00;102384.91;2088974;28;44791;-57
2023/12/15 01:48:06;;;;;;;;;55.25;45.50;;;;;14.32;100.00;102391.13;2089330;28;45148;-57
2023/12/15 01:49:07;;;;;;;;;31.00;30.20;;;;;14.32;100.00;102388.44;2089280;28;44914;-57
2023/12/15 01:50:08;;;;;;;;;38.25;32.25;;;;;14.31;100.00;102395.59;2086628;28;45051;-58
2023/12/15 01:51:09;;;;;;;;;24.60;24.60;;;;;14.32;100.00;102391.13;2089144;28;45001;-55
2023/12/15 01:52:09;;;;;;;;;34.50;31.50;;;;;14.32;100.00;102396.47;2086044;28;44883;-56
2023/12/15 01:53:09;;;;;;;;;36.50;31.00;;;;;14.34;100.00;102389.31;2088554;28;44926;-60
2023/12/15 01:54:10;;;;;;;;;29.75;27.00;;;;;14.36;100.00;102396.44;2087942;28;44893;-58
2023/12/15 01:55:10;;;;;;;;;23.50;21.25;;;;;14.37;100.00;102398.22;2089215;28;44876;-56
2023/12/15 01:56:11;;;;;;;;;26.00;25.75;;;;;14.37;100.00;102400.00;2089460;28;45236;-56
2023/12/15 01:57:12;;;;;;;;;26.50;22.00;;;;;14.39;100.00;102400.84;2088949;28;44972;-58
2023/12/15 01:58:12;;;;;;;;;33.40;30.60;;;;;14.40;100.00;102399.94;2086755;28;44861;-55
2023/12/15 01:59:12;;;;;;;;;26.50;24.50;;;;;14.41;100.00;102399.03;2088882;28;44979;-57
2023/12/15 02:00:13;;;;;;;;;30.50;25.25;;;;;14.42;100.00;102396.34;2088273;28;45084;-59
2023/12/15 02:01:13;;;;;;;;;23.00;23.00;;;;;14.41;100.00;102405.28;2079472;28;45129;-56
2023/12/15 02:02:14;;;;;;;;;27.50;27.50;;;;;14.43;100.00;102413.25;2079598;28;44835;-55
2023/12/15 02:03:14;;;;;;;;;28.50;27.00;;;;;14.46;100.00;102409.69;2088777;28;45042;-58
2023/12/15 02:04:14;;;;;;;;;20.25;19.25;;;;;14.46;100.00;102417.72;2089345;28;44897;-57
2023/12/15 02:05:14;;;;;;;;;26.50;25.50;;;;;14.47;100.00;102416.81;2089032;28;45129;-59
2023/12/15 02:06:15;;;;;;;;;18.50;17.75;;;;;14.46;100.00;102429.28;2089305;28;44954;-56
2023/12/15 02:07:15;;;;;;;;;23.25;22.25;;;;;14.46;100.00;102423.06;2088615;28;45041;-59
2023/12/15 02:08:16;;;;;;;;;23.75;21.00;;;;;14.46;100.00;102421.28;2089168;28;44962;-57
2023/12/15 02:09:16;;;;;;;;;20.00;19.75;;;;;14.47;100.00;102420.38;2088973;28;45190;-57
2023/12/15 02:10:17;;;;;;;;;22.00;21.00;;;;;14.50;100.00;102424.81;2087634;28;45035;-58
2023/12/15 02:11:17;;;;;;;;;21.25;20.00;;;;;14.54;100.00;102422.09;2089294;28;44850;-57
2023/12/15 02:12:17;;;;;;;;;22.50;20.50;;;;;14.55;100.00;102414.97;2089018;28;45023;-56
2023/12/15 02:13:17;;;;;;;;;23.75;21.50;;;;;14.53;100.00;102420.31;2089416;28;44915;-56
2023/12/15 02:14:18;;;;;;;;;23.75;20.00;;;;;14.57;100.00;102424.72;2088916;28;44998;-56
2023/12/15 02:15:18;;;;;;;;;21.75;21.25;;;;;14.56;100.00;102420.28;2089455;28;45343;-55
2023/12/15 02:16:18;;;;;;;;;26.00;23.25;;;;;14.56;100.00;102420.28;2088756;28;44946;-54
2023/12/15 02:17:19;;;;;;;;;24.00;23.00;;;;;14.58;100.00;102430.94;2088901;28;45319;-58
2023/12/15 02:18:19;;;;;;;;;19.75;19.75;;;;;14.59;100.00;102430.91;2089531;28;44923;-55
2023/12/15 02:19:20;;;;;;;;;24.25;22.25;;;;;14.60;100.00;102432.69;2089255;28;45018;-58
2023/12/15 02:20:20;;;;;;;;;25.50;25.50;;;;;14.61;100.00;102426.47;2089099;28;44940;-58
2023/12/15 02:21:21;;;;;;;;;20.00;20.00;;;;;14.62;100.00;102430.03;2089517;28;44878;-57
2023/12/15 02:22:25;;;;;;;;;18.25;18.25;;;;;14.63;100.00;102432.69;2086461;28;44852;-56
2023/12/15 02:23:25;;;;;;;;;25.20;23.20;;;;;14.63;100.00;102437.13;2088550;28;44814;-57
2023/12/15 02:24:26;;;;;;;;;22.75;20.50;;;;;14.63;100.00;102437.13;2089169;28;44996;-57
2023/12/15 02:25:26;;;;;;;;;21.50;21.00;;;;;14.62;100.00;102433.59;2089560;28;45620;-56
2023/12/15 02:26:26;;;;;;;;;19.75;18.25;;;;;14.64;100.00;102434.44;2088956;28;44991;-55
2023/12/15 02:27:27;;;;;;;;;23.50;22.50;;;;;14.66;100.00;102437.09;2084137;28;45247;-56
2023/12/15 02:28:27;;;;;;;;;19.25;19.25;;;;;14.68;100.00;102436.19;2088799;28;44838;-54
2023/12/15 02:29:27;;;;;;;;;20.25;18.75;;;;;14.70;100.00;102439.72;2089011;28;44999;-56
2023/12/15 02:30:28;;;;;;;;;19.25;17.25;;;;;14.70;100.00;102434.38;2089045;28;45398;-56
2023/12/15 02:31:28;;;;;;;;;21.25;20.50;;;;;14.71;100.00;102430.78;2084056;28;44845;-55
2023/12/15 02:32:28;;;;;;;;;20.00;18.25;;;;;14.70;100.00;102434.38;2082418;28;44878;-55
2023/12/15 02:33:29;;;;;;;;;19.00;16.00;;;;;14.70;100.00;102429.03;2088813;28;44765;-54
2023/12/15 02:34:29;;;;;;;;;20.25;18.00;;;;;14.70;100.00;102431.69;2088535;28;44859;-55
2023/12/15 02:35:29;;;;;;;;;25.00;19.25;;;;;14.70;100.00;102431.69;2089043;28;44854;-54
2023/12/15 02:36:29;;;;;;;;;19.75;18.75;;;;;14.72;100.00;102434.34;2089186;28;45043;-55
2023/12/15 02:37:30;;;;;;;;;20.50;19.25;;;;;14.71;100.00;102432.56;2088170;28;44887;-54
2023/12/15 02:38:30;;;;;;;;;16.50;15.25;;;;;14.72;100.00;102432.56;2088421;28;45030;-56
2023/12/15 02:39:31;;;;;;;;;16.00;15.00;;;;;14.72;100.00;102431.66;2088759;28;44993;-54
2023/12/15 02:40:31;;;;;;;;;23.00;21.60;;;;;14.73;100.00;102436.09;2089151;28;44874;-55
2023/12/15 02:41:32;;;;;;;;;22.75;18.00;;;;;14.73;100.00;102434.31;2088803;28;44756;-54
2023/12/15 02:42:32;;;;;;;;;21.75;18.25;;;;;14.75;100.00;102446.81;2088755;28;44827;-54
2023/12/15 02:43:33;;;;;;;;;17.50;17.50;;;;;14.76;100.00;102441.44;2088925;28;45019;-58
2023/12/15 02:44:33;;;;;;;;;16.00;14.67;;;;;14.77;100.00;102445.88;2087416;28;45050;-55
2023/12/15 02:45:33;;;;;;;;;17.25;16.00;;;;;14.75;100.00;102437.00;2088687;28;45129;-56
2023/12/15 02:46:36;;;;;;;;;17.00;17.00;;;;;14.76;100.00;102432.53;2088941;28;44877;-54
2023/12/15 02:47:36;;;;;;;;;18.60;16.40;;;;;14.75;100.00;102434.34;2086563;28;44870;-56
2023/12/15 02:48:37;;;;;;;;;20.00;19.00;;;;;14.76;100.00;102440.56;2088529;28;44916;-56
2023/12/15 02:49:40;;;;;;;;;22.50;18.50;;;;;14.77;100.00;102450.34;2086092;28;44932;-57
2023/12/15 02:50:40;;;;;;;;;17.00;17.00;;;;;14.76;100.00;102449.47;2088631;28;44995;-56
2023/12/15 02:51:40;;;;;;;;;17.75;16.00;;;;;14.76;100.00;102454.81;2088769;28;44953;-54
2023/12/15 02:52:41;;;;;;;;;17.67;16.33;;;;;14.78;100.00;102452.13;2081869;28;44918;-56
2023/12/15 02:53:41;;;;;;;;;18.50;17.25;;;;;14.78;100.00;102461.00;2083211;28;45112;-56
2023/12/15 02:54:41;;;;;;;;;18.75;18.50;;;;;14.78;100.00;102457.47;2080623;28;44856;-57
2023/12/15 02:55:43;;;;;;;;;16.00;15.00;;;;;14.78;100.00;102455.66;2087242;28;44806;-58
2023/12/15 02:56:43;;;;;;;;;17.60;16.40;;;;;14.80;100.00;102461.00;2088522;28;44869;-56
2023/12/15 02:57:43;;;;;;;;;17.75;16.25;;;;;14.80;100.00;102458.31;2088874;28;44775;-56
2023/12/15 02:58:43;;;;;;;;;17.50;16.50;;;;;14.80;100.00;102453.84;2086407;28;44924;-58
2023/12/15 02:59:44;;;;;;;;;21.50;17.75;;;;;14.79;100.00;102457.44;2080476;28;44966;-58
2023/12/15 03:00:46;;;;;;;;;16.75;16.50;;;;;14.80;100.00;102453.84;2086840;28;44819;-55
2023/12/15 03:01:46;;;;;;;;;19.40;19.40;;;;;14.78;100.00;102458.34;2088531;28;45002;-57
2023/12/15 03:02:47;;;;;;;;;18.50;18.00;;;;;14.78;100.00;102471.72;2088716;28;44962;-57
2023/12/15 03:03:47;;;;;;;;;17.75;17.75;;;;;14.79;100.00;102468.13;2088542;28;44913;-56
2023/12/15 03:04:48;;;;;;;;;17.00;16.50;;;;;14.79;100.00;102467.25;2088967;28;44973;-56
2023/12/15 03:05:48;;;;;;;;;15.67;15.67;;;;;14.77;100.00;102480.63;2087901;28;45100;-55
2023/12/15 03:06:48;;;;;;;;;18.33;17.33;;;;;14.80;100.00;102480.59;2087181;28;45006;-55
2023/12/15 03:07:48;;;;;;;;;19.00;15.00;;;;;14.77;100.00;102477.06;2080517;28;44876;-55
2023/12/15 03:08:49;;;;;;;;;15.33;15.33;;;;;14.80;100.00;102479.69;2088452;28;44830;-54
2023/12/15 03:09:49;;;;;;;;;16.50;14.25;;;;;14.79;100.00;102486.84;2088527;28;44862;-54
2023/12/15 03:10:51;;;;;;;;;17.25;16.50;;;;;14.81;100.00;102490.38;2080723;28;44883;-54
2023/12/15 03:11:51;;;;;;;;;19.00;17.25;;;;;14.81;100.00;102494.84;2086401;28;45090;-56
2023/12/15 03:12:52;;;;;;;;;17.00;17.00;;;;;14.81;100.00;102485.03;2088686;28;44835;-54
2023/12/15 03:13:52;;;;;;;;;16.00;16.00;;;;;14.79;100.00;102483.28;2088628;28;45300;-57
2023/12/15 03:14:55;;;;;;;;;16.00;15.00;;;;;14.79;100.00;102489.50;2088545;28;44897;-54
2023/12/15 03:16:04;;;;;;;;;14.80;14.80;;;;;14.83;100.00;102491.25;2089092;28;44940;-53
2023/12/15 03:17:04;;;;;;;;;17.60;16.60;;;;;14.81;100.00;102493.03;2077726;28;45138;-54
2023/12/15 03:18:05;;;;;;;;;18.75;16.50;;;;;14.81;100.00;102500.19;2079128;28;44906;-54
2023/12/15 03:19:05;;;;;;;;;19.67;18.00;;;;;14.81;100.00;102495.72;2080825;28;44803;-55
2023/12/15 03:20:07;;;;;;;;;19.00;18.00;;;;;14.81;100.00;102501.06;2087097;28;44960;-54
2023/12/15 03:21:07;;;;;;;;;17.75;15.75;;;;;14.81;100.00;102497.50;2088627;28;44874;-56
2023/12/15 03:22:08;;;;;;;;;18.00;16.00;;;;;14.82;100.00;102499.28;2088851;28;45160;-57
2023/12/15 03:23:08;;;;;;;;;15.00;15.00;;;;;14.83;100.00;102501.03;2088616;28;44755;-56
2023/12/15 03:24:08;;;;;;;;;13.33;13.33;;;;;14.83;100.00;102506.38;2088873;28;44956;-55
2023/12/15 03:25:09;;;;;;;;;16.00;16.00;;;;;14.82;100.00;102502.84;2088445;28;45024;-57
2023/12/15 03:26:09;;;;;;;;;20.00;15.25;;;;;14.83;100.00;102509.94;2087821;28;45087;-55
2023/12/15 03:27:09;;;;;;;;;13.50;13.50;;;;;14.81;100.00;102509.09;2081520;28;45000;-58
2023/12/15 03:28:10;;;;;;;;;16.00;14.50;;;;;14.80;100.00;102510.00;2087928;28;44924;-55
2023/12/15 03:29:10;;;;;;;;;17.00;16.00;;;;;14.82;100.00;102513.53;2088252;28;44913;-56
2023/12/15 03:30:11;;;;;;;;;16.00;16.00;;;;;14.79;100.00;102508.22;2088808;28;45363;-55
2023/12/15 03:31:11;;;;;;;;;16.50;16.50;;;;;14.77;100.00;102506.47;2088466;28;44845;-56
2023/12/15 03:32:11;;;;;;;;;14.75;14.75;;;;;14.76;100.00;102504.69;2088275;28;45032;-54
2023/12/15 03:33:12;;;;;;;;;14.00;14.00;;;;;14.74;100.00;102507.41;2087354;28;45070;-54
2023/12/15 03:34:12;;;;;;;;;19.75;19.00;;;;;14.76;100.00;102502.03;2084737;28;45059;-55
2023/12/15 03:35:12;;;;;;;;;17.33;15.00;;;;;14.76;100.00;102510.03;2088641;28;44954;-54
2023/12/15 03:36:13;;;;;;;;;14.00;14.00;;;;;14.75;100.00;102503.81;2088935;28;44791;-54
2023/12/15 03:37:13;;;;;;;;;18.50;18.00;;;;;14.75;100.00;102511.84;2088466;28;44879;-55
2023/12/15 03:38:14;;;;;;;;;16.33;15.67;;;;;14.76;100.00;102513.59;2088430;28;44936;-56
2023/12/15 03:39:15;;;;;;;;;17.80;17.80;;;;;14.74;100.00;102515.41;2088380;28;44833;-55
2023/12/15 03:40:15;;;;;;;;;14.00;14.00;;;;;14.71;100.00;102516.31;2088370;28;45121;-53
2023/12/15 03:41:15;;;;;;;;;15.00;15.00;;;;;14.71;100.00;102518.09;2070630;28;45532;-56
2023/12/15 03:42:16;;;;;;;;;14.00;12.33;;;;;14.69;100.00;102515.44;2070751;28;44891;-54
2023/12/15 03:43:16;;;;;;;;;12.33;12.33;;;;;14.70;100.00;102530.56;2087518;28;44973;-53
2023/12/15 03:44:16;;;;;;;;;17.50;15.50;;;;;14.72;100.00;102530.53;2078706;28;44962;-55
2023/12/15 03:45:16;;;;;;;;;14.00;14.00;;;;;14.70;100.00;102522.56;2078701;28;44812;-56
2023/12/15 03:46:17;;;;;;;;;12.50;11.75;;;;;14.68;100.00;102527.03;2088314;28;45213;-56
2023/12/15 03:47:17;;;;;;;;;13.67;13.67;;;;;14.70;100.00;102532.34;2088753;28;45226;-55
2023/12/15 03:48:17;;;;;;;;;17.00;15.75;;;;;14.68;100.00;102532.38;2088925;28;44893;-56
2023/12/15 03:49:18;;;;;;;;;14.75;14.75;;;;;14.70;100.00;102532.34;2087235;28;44877;-54
2023/12/15 03:50:18;;;;;;;;;15.67;14.00;;;;;14.68;100.00;102536.84;2084024;28;44973;-54
2023/12/15 03:51:18;;;;;;;;;17.00;17.00;;;;;14.69;100.00;102535.94;2084784;28;44893;-55
2023/12/15 03:52:19;;;;;;;;;14.50;12.00;;;;;14.70;100.00;102543.94;2088077;28;44890;-53
2023/12/15 03:53:19;;;;;;;;;15.33;15.00;;;;;14.71;100.00;102545.69;2088300;28;44956;-54
2023/12/15 03:54:19;;;;;;;;;16.00;14.50;;;;;14.71;100.00;102543.03;2088817;28;44984;-58
2023/12/15 03:55:20;;;;;;;;;17.00;15.67;;;;;14.70;100.00;102549.28;2088447;28;45315;-54
2023/12/15 03:56:26;;;;;;;;;15.33;13.33;;;;;14.71;100.00;102550.16;2096083;28;44994;-56
2023/12/15 03:57:26;;;;;;;;;18.40;16.60;;;;;14.71;100.00;102553.72;2095418;28;44978;-55
2023/12/15 03:58:27;;;;;;;;;16.00;15.75;;;;;14.73;100.00;102553.69;2088090;28;44834;-57
2023/12/15 03:59:27;;;;;;;;;16.33;15.00;;;;;14.72;100.00;102555.50;2088114;28;44996;-55
2023/12/15 04:00:28;;;;;;;;;14.00;14.00;;;;;14.73;100.00;102553.69;2083969;28;44975;-57
2023/12/15 04:01:29;;;;;;;;;15.60;15.60;;;;;14.73;100.00;102553.69;2087100;28;44902;-54
2023/12/15 04:02:30;;;;;;;;;16.40;16.20;;;;;14.75;100.00;102556.38;2088294;28;44831;-55
2023/12/15 04:03:30;;;;;;;;;15.75;15.00;;;;;14.74;100.00;102563.53;2088213;28;44803;-56
2023/12/15 04:04:34;;;;;;;;;17.80;16.40;;;;;14.77;100.00;102558.13;2088294;28;44841;-57
2023/12/15 04:05:35;;;;;;;;;16.20;14.20;;;;;14.78;100.00;102561.69;2088255;28;45008;-55
2023/12/15 04:06:35;;;;;;;;;16.25;16.00;;;;;14.78;100.00;102567.03;2087932;28;44913;-55
2023/12/15 04:07:35;;;;;;;;;17.50;16.50;;;;;14.79;100.00;102569.69;2088531;28;44841;-57
2023/12/15 04:08:36;;;;;;;;;20.50;16.25;;;;;14.79;100.00;102566.13;2085707;28;45118;-55
2023/12/15 04:09:36;;;;;;;;;17.75;14.00;;;;;14.79;100.00;102561.69;2088383;28;45200;-56
2023/12/15 04:10:36;;;;;;;;;14.00;14.00;;;;;14.77;100.00;102570.63;2088707;28;44822;-57
2023/12/15 04:11:37;;;;;;;;;14.50;14.50;;;;;14.77;100.00;102568.81;2088218;28;45000;-57
2023/12/15 04:12:37;;;;;;;;;15.25;15.25;;;;;14.78;100.00;102570.59;2087876;28;44874;-54
2023/12/15 04:13:38;;;;;;;;;16.50;15.00;;;;;14.80;100.00;102571.47;2088275;28;44888;-56
2023/12/15 04:14:38;;;;;;;;;12.75;12.75;;;;;14.80;100.00;102570.56;2088296;28;44905;-55
2023/12/15 04:15:38;;;;;;;;;9.67;8.33;;;;;14.80;100.00;102574.13;2088424;28;45028;-54
2023/12/15 04:16:42;;;;;;;;;13.25;12.00;;;;;14.82;100.00;102582.13;2087987;28;45294;-57
2023/12/15 04:17:42;;;;;;;;;18.50;15.50;;;;;14.78;100.00;102573.28;2088129;28;45049;-57
2023/12/15 04:18:42;;;;;;;;;18.75;16.50;;;;;14.81;100.00;102575.03;2083921;28;44991;-57
2023/12/15 04:19:42;;;;;;;;;18.00;16.33;;;;;14.82;100.00;102580.34;2084902;28;45127;-58
2023/12/15 04:20:43;;;;;;;;;18.00;17.00;;;;;14.81;100.00;102581.25;2081538;28;44827;-57
2023/12/15 04:21:43;;;;;;;;;17.50;16.00;;;;;14.83;100.00;102582.13;2087365;28;44999;-58
2023/12/15 04:22:44;;;;;;;;;17.75;15.50;;;;;14.83;100.00;102589.25;2087663;28;44817;-59
2023/12/15 04:23:44;;;;;;;;;19.00;18.00;;;;;14.82;100.00;102584.81;2088315;28;44799;-57
2023/12/15 04:24:45;;;;;;;;;17.75;16.50;;;;;14.86;100.00;102584.75;2087615;28;44906;-58
2023/12/15 04:25:45;;;;;;;;;17.00;15.25;;;;;14.83;100.00;102582.13;2087833;28;44945;-58
2023/12/15 04:26:45;;;;;;;;;18.25;18.25;;;;;14.85;100.00;102584.78;2084372;28;44991;-59
2023/12/15 04:27:46;;;;;;;;;21.00;18.25;;;;;14.82;100.00;102583.03;2084620;28;44996;-57
2023/12/15 04:28:47;;;;;;;;;16.25;15.25;;;;;14.84;100.00;102589.22;2088135;28;45059;-57
2023/12/15 04:29:47;;;;;;;;;19.75;16.50;;;;;14.85;100.00;102588.31;2088155;28;44960;-57
2023/12/15 04:30:47;;;;;;;;;18.00;15.67;;;;;14.81;100.00;102589.28;2088589;28;44906;-58
2023/12/15 04:31:48;;;;;;;;;18.00;16.50;;;;;14.81;100.00;102586.59;2088486;28;44895;-59
2023/12/15 04:32:48;;;;;;;;;19.00;18.00;;;;;14.82;100.00;102590.16;2088665;28;44889;-58